sensor_id;sensor_type;location;lat;lon;timestamp;P1;durP1;ratioP1;P2;durP2;ratioP2
11496;SDS011;5805;51.542;7.230;2024-02-26T00:00:59;1.58;;;1.30;;
11496;SDS011;5805;51.542;7.230;2024-02-26T00:03:25;1.33;;;1.23;;
11496;SDS011;5805;51.542;7.230;2024-02-26T00:05:51;2.25;;;1.48;;
11496;SDS011;5805;51.542;7.230;2024-02-26T00:08:19;1.83;;;1.40;;
11496;SDS011;5805;51.542;7.230;2024-02-26T00:10:47;1.77;;;1.40;;
11496;SDS011;5805;51.542;7.230;2024-02-26T00:13:12;2.10;;;1.50;;
11496;SDS011;5805;51.542;7.230;2024-02-26T00:15:38;1.45;;;1.35;;
11496;SDS011;5805;51.542;7.230;2024-02-26T00:18:04;2.35;;;1.67;;
11496;SDS011;5805;51.542;7.230;2024-02-26T00:20:30;1.85;;;1.33;;
11496;SDS011;5805;51.542;7.230;2024-02-26T00:22:55;4.07;;;1.40;;
11496;SDS011;5805;51.542;7.230;2024-02-26T00:25:21;1.13;;;1.13;;
11496;SDS011;5805;51.542;7.230;2024-02-26T00:27:48;1.33;;;1.15;;
11496;SDS011;5805;51.542;7.230;2024-02-26T00:30:14;2.30;;;1.50;;
11496;SDS011;5805;51.542;7.230;2024-02-26T00:32:40;4.57;;;1.42;;
11496;SDS011;5805;51.542;7.230;2024-02-26T00:35:06;2.42;;;1.33;;
11496;SDS011;5805;51.542;7.230;2024-02-26T00:37:32;2.80;;;1.42;;
11496;SDS011;5805;51.542;7.230;2024-02-26T00:39:57;1.95;;;1.30;;
11496;SDS011;5805;51.542;7.230;2024-02-26T00:42:23;1.42;;;1.20;;
11496;SDS011;5805;51.542;7.230;2024-02-26T00:44:50;1.80;;;1.30;;
11496;SDS011;5805;51.542;7.230;2024-02-26T00:47:16;1.40;;;1.20;;
11496;SDS011;5805;51.542;7.230;2024-02-26T00:49:41;1.20;;;0.93;;
11496;SDS011;5805;51.542;7.230;2024-02-26T00:52:07;4.43;;;1.50;;
11496;SDS011;5805;51.542;7.230;2024-02-26T00:54:33;1.63;;;1.00;;
11496;SDS011;5805;51.542;7.230;2024-02-26T00:56:58;1.98;;;1.60;;
11496;SDS011;5805;51.542;7.230;2024-02-26T00:59:24;1.52;;;1.30;;
11496;SDS011;5805;51.542;7.230;2024-02-26T01:01:51;2.55;;;1.40;;
11496;SDS011;5805;51.542;7.230;2024-02-26T01:04:17;2.03;;;1.25;;
11496;SDS011;5805;51.542;7.230;2024-02-26T01:06:43;1.80;;;1.30;;
11496;SDS011;5805;51.542;7.230;2024-02-26T01:09:08;1.17;;;1.08;;
11496;SDS011;5805;51.542;7.230;2024-02-26T01:11:34;2.03;;;1.30;;
11496;SDS011;5805;51.542;7.230;2024-02-26T01:14:02;1.48;;;1.13;;
11496;SDS011;5805;51.542;7.230;2024-02-26T01:16:27;1.50;;;1.10;;
11496;SDS011;5805;51.542;7.230;2024-02-26T01:18:54;2.00;;;1.30;;
11496;SDS011;5805;51.542;7.230;2024-02-26T01:21:20;1.73;;;1.30;;
11496;SDS011;5805;51.542;7.230;2024-02-26T01:23:46;1.33;;;1.10;;
11496;SDS011;5805;51.542;7.230;2024-02-26T01:26:11;2.15;;;1.38;;
11496;SDS011;5805;51.542;7.230;2024-02-26T01:28:37;1.50;;;1.17;;
11496;SDS011;5805;51.542;7.230;2024-02-26T01:31:03;1.05;;;0.95;;
11496;SDS011;5805;51.542;7.230;2024-02-26T01:33:28;1.85;;;1.40;;
11496;SDS011;5805;51.542;7.230;2024-02-26T01:35:56;1.60;;;1.20;;
11496;SDS011;5805;51.542;7.230;2024-02-26T01:38:21;1.55;;;0.93;;
11496;SDS011;5805;51.542;7.230;2024-02-26T01:40:47;1.90;;;1.30;;
11496;SDS011;5805;51.542;7.230;2024-02-26T01:43:13;1.50;;;1.30;;
11496;SDS011;5805;51.542;7.230;2024-02-26T01:45:38;1.98;;;1.10;;
11496;SDS011;5805;51.542;7.230;2024-02-26T01:48:04;1.42;;;1.13;;
11496;SDS011;5805;51.542;7.230;2024-02-26T01:50:31;1.70;;;1.10;;
11496;SDS011;5805;51.542;7.230;2024-02-26T01:52:58;1.00;;;0.93;;
11496;SDS011;5805;51.542;7.230;2024-02-26T01:55:24;1.73;;;1.20;;
11496;SDS011;5805;51.542;7.230;2024-02-26T01:57:51;1.13;;;1.02;;
11496;SDS011;5805;51.542;7.230;2024-02-26T02:00:18;1.77;;;1.15;;
11496;SDS011;5805;51.542;7.230;2024-02-26T02:02:45;1.83;;;1.10;;
11496;SDS011;5805;51.542;7.230;2024-02-26T02:05:11;1.95;;;1.20;;
11496;SDS011;5805;51.542;7.230;2024-02-26T02:07:38;1.98;;;1.27;;
11496;SDS011;5805;51.542;7.230;2024-02-26T02:10:06;1.63;;;1.10;;
11496;SDS011;5805;51.542;7.230;2024-02-26T02:12:33;2.22;;;1.13;;
11496;SDS011;5805;51.542;7.230;2024-02-26T02:14:58;1.20;;;0.93;;
11496;SDS011;5805;51.542;7.230;2024-02-26T02:17:24;2.60;;;1.40;;
11496;SDS011;5805;51.542;7.230;2024-02-26T02:19:50;1.48;;;1.10;;
11496;SDS011;5805;51.542;7.230;2024-02-26T02:22:17;1.50;;;1.20;;
11496;SDS011;5805;51.542;7.230;2024-02-26T02:24:43;1.15;;;1.00;;
11496;SDS011;5805;51.542;7.230;2024-02-26T02:27:09;1.27;;;0.90;;
11496;SDS011;5805;51.542;7.230;2024-02-26T02:29:35;1.05;;;0.95;;
11496;SDS011;5805;51.542;7.230;2024-02-26T02:32:01;1.25;;;0.98;;
11496;SDS011;5805;51.542;7.230;2024-02-26T02:34:28;3.00;;;1.00;;
11496;SDS011;5805;51.542;7.230;2024-02-26T02:36:54;1.08;;;0.90;;
11496;SDS011;5805;51.542;7.230;2024-02-26T02:39:22;1.10;;;1.00;;
11496;SDS011;5805;51.542;7.230;2024-02-26T02:41:47;1.52;;;1.00;;
11496;SDS011;5805;51.542;7.230;2024-02-26T02:44:13;1.25;;;0.85;;
11496;SDS011;5805;51.542;7.230;2024-02-26T02:46:39;2.28;;;1.15;;
11496;SDS011;5805;51.542;7.230;2024-02-26T02:49:07;1.15;;;0.90;;
11496;SDS011;5805;51.542;7.230;2024-02-26T02:51:33;2.00;;;1.10;;
11496;SDS011;5805;51.542;7.230;2024-02-26T02:53:59;1.13;;;0.88;;
11496;SDS011;5805;51.542;7.230;2024-02-26T02:56:26;1.52;;;1.10;;
11496;SDS011;5805;51.542;7.230;2024-02-26T02:58:51;1.40;;;1.10;;
11496;SDS011;5805;51.542;7.230;2024-02-26T03:01:17;0.88;;;0.80;;
11496;SDS011;5805;51.542;7.230;2024-02-26T03:03:43;3.45;;;1.10;;
11496;SDS011;5805;51.542;7.230;2024-02-26T03:06:09;1.05;;;0.98;;
11496;SDS011;5805;51.542;7.230;2024-02-26T03:08:34;1.30;;;0.98;;
11496;SDS011;5805;51.542;7.230;2024-02-26T03:11:00;1.17;;;0.82;;
11496;SDS011;5805;51.542;7.230;2024-02-26T03:13:27;1.42;;;1.17;;
11496;SDS011;5805;51.542;7.230;2024-02-26T03:15:53;1.20;;;1.00;;
11496;SDS011;5805;51.542;7.230;2024-02-26T03:18:19;1.00;;;0.90;;
11496;SDS011;5805;51.542;7.230;2024-02-26T03:20:44;1.00;;;0.90;;
11496;SDS011;5805;51.542;7.230;2024-02-26T03:23:10;2.15;;;0.90;;
11496;SDS011;5805;51.542;7.230;2024-02-26T03:25:36;1.33;;;0.88;;
11496;SDS011;5805;51.542;7.230;2024-02-26T03:28:02;0.77;;;0.77;;
11496;SDS011;5805;51.542;7.230;2024-02-26T03:30:29;1.90;;;0.98;;
11496;SDS011;5805;51.542;7.230;2024-02-26T03:32:55;1.38;;;1.02;;
11496;SDS011;5805;51.542;7.230;2024-02-26T03:35:20;4.85;;;1.05;;
11496;SDS011;5805;51.542;7.230;2024-02-26T03:37:46;2.08;;;0.88;;
11496;SDS011;5805;51.542;7.230;2024-02-26T03:40:12;1.52;;;1.00;;
11496;SDS011;5805;51.542;7.230;2024-02-26T03:42:38;0.80;;;0.80;;
11496;SDS011;5805;51.542;7.230;2024-02-26T03:45:04;1.13;;;1.02;;
11496;SDS011;5805;51.542;7.230;2024-02-26T03:47:32;1.30;;;0.95;;
11496;SDS011;5805;51.542;7.230;2024-02-26T03:50:00;1.05;;;0.90;;
11496;SDS011;5805;51.542;7.230;2024-02-26T03:52:26;1.15;;;0.90;;
11496;SDS011;5805;51.542;7.230;2024-02-26T03:54:51;1.10;;;1.00;;
11496;SDS011;5805;51.542;7.230;2024-02-26T03:57:17;1.45;;;1.08;;
11496;SDS011;5805;51.542;7.230;2024-02-26T03:59:43;2.17;;;1.05;;
11496;SDS011;5805;51.542;7.230;2024-02-26T04:02:08;1.10;;;1.00;;
11496;SDS011;5805;51.542;7.230;2024-02-26T04:04:36;1.05;;;0.82;;
11496;SDS011;5805;51.542;7.230;2024-02-26T04:07:01;2.03;;;0.98;;
11496;SDS011;5805;51.542;7.230;2024-02-26T04:09:27;1.10;;;1.00;;
11496;SDS011;5805;51.542;7.230;2024-02-26T04:11:53;1.58;;;0.93;;
11496;SDS011;5805;51.542;7.230;2024-02-26T04:14:19;1.95;;;1.10;;
11496;SDS011;5805;51.542;7.230;2024-02-26T04:16:44;1.85;;;1.00;;
11496;SDS011;5805;51.542;7.230;2024-02-26T04:19:10;1.60;;;1.13;;
11496;SDS011;5805;51.542;7.230;2024-02-26T04:21:37;1.00;;;0.90;;
11496;SDS011;5805;51.542;7.230;2024-02-26T04:24:03;2.08;;;1.10;;
11496;SDS011;5805;51.542;7.230;2024-02-26T04:26:30;1.40;;;1.10;;
11496;SDS011;5805;51.542;7.230;2024-02-26T04:28:55;1.75;;;1.02;;
11496;SDS011;5805;51.542;7.230;2024-02-26T04:31:21;1.83;;;1.00;;
11496;SDS011;5805;51.542;7.230;2024-02-26T04:33:47;2.33;;;1.00;;
11496;SDS011;5805;51.542;7.230;2024-02-26T04:36:13;2.35;;;1.02;;
11496;SDS011;5805;51.542;7.230;2024-02-26T04:38:40;1.17;;;1.08;;
11496;SDS011;5805;51.542;7.230;2024-02-26T04:41:06;2.10;;;1.38;;
11496;SDS011;5805;51.542;7.230;2024-02-26T04:43:32;1.40;;;1.30;;
11496;SDS011;5805;51.542;7.230;2024-02-26T04:45:57;2.92;;;1.20;;
11496;SDS011;5805;51.542;7.230;2024-02-26T04:48:23;2.65;;;1.23;;
11496;SDS011;5805;51.542;7.230;2024-02-26T04:50:49;1.92;;;1.25;;
11496;SDS011;5805;51.542;7.230;2024-02-26T04:53:14;1.58;;;1.20;;
11496;SDS011;5805;51.542;7.230;2024-02-26T04:55:42;3.35;;;1.20;;
11496;SDS011;5805;51.542;7.230;2024-02-26T04:58:07;1.95;;;1.30;;
11496;SDS011;5805;51.542;7.230;2024-02-26T05:00:33;1.95;;;1.38;;
11496;SDS011;5805;51.542;7.230;2024-02-26T05:02:58;1.40;;;1.00;;
11496;SDS011;5805;51.542;7.230;2024-02-26T05:05:24;1.83;;;1.30;;
11496;SDS011;5805;51.542;7.230;2024-02-26T05:07:50;1.55;;;1.20;;
11496;SDS011;5805;51.542;7.230;2024-02-26T05:10:16;2.28;;;1.48;;
11496;SDS011;5805;51.542;7.230;2024-02-26T05:12:43;2.28;;;1.60;;
11496;SDS011;5805;51.542;7.230;2024-02-26T05:15:09;2.10;;;1.10;;
11496;SDS011;5805;51.542;7.230;2024-02-26T05:17:35;2.63;;;1.13;;
11496;SDS011;5805;51.542;7.230;2024-02-26T05:20:00;3.03;;;1.25;;
11496;SDS011;5805;51.542;7.230;2024-02-26T05:22:26;2.85;;;1.23;;
11496;SDS011;5805;51.542;7.230;2024-02-26T05:24:52;0.90;;;0.90;;
11496;SDS011;5805;51.542;7.230;2024-02-26T05:27:17;3.85;;;1.40;;
11496;SDS011;5805;51.542;7.230;2024-02-26T05:29:44;1.73;;;1.20;;
11496;SDS011;5805;51.542;7.230;2024-02-26T05:32:10;2.83;;;1.20;;
11496;SDS011;5805;51.542;7.230;2024-02-26T05:34:36;3.35;;;1.50;;
11496;SDS011;5805;51.542;7.230;2024-02-26T05:37:01;1.50;;;1.40;;
11496;SDS011;5805;51.542;7.230;2024-02-26T05:39:27;1.60;;;1.30;;
11496;SDS011;5805;51.542;7.230;2024-02-26T05:41:53;2.63;;;1.50;;
11496;SDS011;5805;51.542;7.230;2024-02-26T05:44:18;2.53;;;1.17;;
11496;SDS011;5805;51.542;7.230;2024-02-26T05:46:46;2.50;;;1.35;;
11496;SDS011;5805;51.542;7.230;2024-02-26T05:49:12;3.53;;;1.58;;
11496;SDS011;5805;51.542;7.230;2024-02-26T05:51:38;2.90;;;1.50;;
11496;SDS011;5805;51.542;7.230;2024-02-26T05:54:03;3.88;;;1.40;;
11496;SDS011;5805;51.542;7.230;2024-02-26T05:56:29;2.85;;;1.23;;
11496;SDS011;5805;51.542;7.230;2024-02-26T05:58:58;1.80;;;1.35;;
11496;SDS011;5805;51.542;7.230;2024-02-26T06:01:23;2.33;;;1.40;;
11496;SDS011;5805;51.542;7.230;2024-02-26T06:03:51;5.30;;;1.48;;
11496;SDS011;5805;51.542;7.230;2024-02-26T06:06:16;1.20;;;1.10;;
11496;SDS011;5805;51.542;7.230;2024-02-26T06:08:42;1.55;;;1.30;;
11496;SDS011;5805;51.542;7.230;2024-02-26T06:11:08;2.33;;;1.27;;
11496;SDS011;5805;51.542;7.230;2024-02-26T06:13:34;2.10;;;1.15;;
11496;SDS011;5805;51.542;7.230;2024-02-26T06:16:00;2.85;;;1.70;;
11496;SDS011;5805;51.542;7.230;2024-02-26T06:18:26;1.45;;;1.20;;
11496;SDS011;5805;51.542;7.230;2024-02-26T06:20:53;1.65;;;1.27;;
11496;SDS011;5805;51.542;7.230;2024-02-26T06:23:18;1.20;;;1.10;;
11496;SDS011;5805;51.542;7.230;2024-02-26T06:25:44;1.45;;;1.13;;
11496;SDS011;5805;51.542;7.230;2024-02-26T06:28:10;1.85;;;1.33;;
11496;SDS011;5805;51.542;7.230;2024-02-26T06:30:35;2.15;;;1.13;;
11496;SDS011;5805;51.542;7.230;2024-02-26T06:33:01;1.02;;;1.00;;
11496;SDS011;5805;51.542;7.230;2024-02-26T06:35:27;1.13;;;1.02;;
11496;SDS011;5805;51.542;7.230;2024-02-26T06:37:54;1.90;;;1.30;;
11496;SDS011;5805;51.542;7.230;2024-02-26T06:40:20;1.38;;;1.17;;
11496;SDS011;5805;51.542;7.230;2024-02-26T06:42:45;3.75;;;1.75;;
11496;SDS011;5805;51.542;7.230;2024-02-26T06:45:11;1.50;;;1.30;;
11496;SDS011;5805;51.542;7.230;2024-02-26T06:47:37;3.08;;;1.30;;
11496;SDS011;5805;51.542;7.230;2024-02-26T06:50:03;2.22;;;1.13;;
11496;SDS011;5805;51.542;7.230;2024-02-26T06:52:29;2.25;;;1.30;;
11496;SDS011;5805;51.542;7.230;2024-02-26T06:54:56;3.00;;;1.30;;
11496;SDS011;5805;51.542;7.230;2024-02-26T06:57:22;4.38;;;1.67;;
11496;SDS011;5805;51.542;7.230;2024-02-26T06:59:47;1.88;;;1.63;;
11496;SDS011;5805;51.542;7.230;2024-02-26T07:02:13;2.20;;;1.48;;
11496;SDS011;5805;51.542;7.230;2024-02-26T07:04:39;3.75;;;1.80;;
11496;SDS011;5805;51.542;7.230;2024-02-26T07:07:05;2.80;;;1.40;;
11496;SDS011;5805;51.542;7.230;2024-02-26T07:09:30;1.92;;;1.70;;
11496;SDS011;5805;51.542;7.230;2024-02-26T07:11:57;4.65;;;1.30;;
11496;SDS011;5805;51.542;7.230;2024-02-26T07:14:23;2.65;;;1.83;;
11496;SDS011;5805;51.542;7.230;2024-02-26T07:16:49;3.08;;;1.95;;
11496;SDS011;5805;51.542;7.230;2024-02-26T07:19:14;3.47;;;1.95;;
11496;SDS011;5805;51.542;7.230;2024-02-26T07:21:40;2.60;;;1.73;;
11496;SDS011;5805;51.542;7.230;2024-02-26T07:24:06;2.40;;;1.67;;
11496;SDS011;5805;51.542;7.230;2024-02-26T07:26:32;2.88;;;1.95;;
11496;SDS011;5805;51.542;7.230;2024-02-26T07:28:59;3.13;;;1.73;;
11496;SDS011;5805;51.542;7.230;2024-02-26T07:31:24;2.88;;;2.20;;
11496;SDS011;5805;51.542;7.230;2024-02-26T07:33:50;2.20;;;1.75;;
11496;SDS011;5805;51.542;7.230;2024-02-26T07:36:16;4.38;;;1.77;;
11496;SDS011;5805;51.542;7.230;2024-02-26T07:38:41;2.28;;;1.25;;
11496;SDS011;5805;51.542;7.230;2024-02-26T07:41:07;3.63;;;1.90;;
11496;SDS011;5805;51.542;7.230;2024-02-26T07:43:33;2.35;;;1.83;;
11496;SDS011;5805;51.542;7.230;2024-02-26T07:46:00;5.97;;;1.73;;
11496;SDS011;5805;51.542;7.230;2024-02-26T07:48:25;2.38;;;1.73;;
11496;SDS011;5805;51.542;7.230;2024-02-26T07:50:51;3.65;;;1.63;;
11496;SDS011;5805;51.542;7.230;2024-02-26T07:53:17;2.17;;;1.48;;
11496;SDS011;5805;51.542;7.230;2024-02-26T07:55:43;2.28;;;1.45;;
11496;SDS011;5805;51.542;7.230;2024-02-26T07:58:08;2.35;;;1.60;;
11496;SDS011;5805;51.542;7.230;2024-02-26T08:00:34;4.15;;;1.80;;
11496;SDS011;5805;51.542;7.230;2024-02-26T08:03:01;2.30;;;1.55;;
11496;SDS011;5805;51.542;7.230;2024-02-26T08:05:27;2.38;;;2.10;;
11496;SDS011;5805;51.542;7.230;2024-02-26T08:07:53;3.35;;;1.95;;
11496;SDS011;5805;51.542;7.230;2024-02-26T08:10:19;2.40;;;2.10;;
11496;SDS011;5805;51.542;7.230;2024-02-26T08:12:44;2.08;;;1.52;;
11496;SDS011;5805;51.542;7.230;2024-02-26T08:15:10;2.70;;;1.70;;
11496;SDS011;5805;51.542;7.230;2024-02-26T08:17:36;3.80;;;2.08;;
11496;SDS011;5805;51.542;7.230;2024-02-26T08:20:03;2.15;;;1.60;;
11496;SDS011;5805;51.542;7.230;2024-02-26T08:22:29;4.53;;;1.85;;
11496;SDS011;5805;51.542;7.230;2024-02-26T08:24:55;2.10;;;1.70;;
11496;SDS011;5805;51.542;7.230;2024-02-26T08:27:21;2.03;;;1.70;;
11496;SDS011;5805;51.542;7.230;2024-02-26T08:29:46;2.50;;;1.60;;
11496;SDS011;5805;51.542;7.230;2024-02-26T08:32:12;3.35;;;1.63;;
11496;SDS011;5805;51.542;7.230;2024-02-26T08:34:38;2.58;;;1.88;;
11496;SDS011;5805;51.542;7.230;2024-02-26T08:37:05;2.67;;;1.50;;
11496;SDS011;5805;51.542;7.230;2024-02-26T08:39:31;2.75;;;1.70;;
11496;SDS011;5805;51.542;7.230;2024-02-26T08:41:57;3.10;;;1.67;;
11496;SDS011;5805;51.542;7.230;2024-02-26T08:44:22;4.10;;;1.80;;
11496;SDS011;5805;51.542;7.230;2024-02-26T08:46:48;3.05;;;1.63;;
11496;SDS011;5805;51.542;7.230;2024-02-26T08:49:14;1.50;;;1.35;;
11496;SDS011;5805;51.542;7.230;2024-02-26T08:51:41;2.53;;;1.60;;
11496;SDS011;5805;51.542;7.230;2024-02-26T08:54:08;2.30;;;1.33;;
11496;SDS011;5805;51.542;7.230;2024-02-26T08:56:34;2.42;;;1.70;;
11496;SDS011;5805;51.542;7.230;2024-02-26T08:58:59;2.40;;;1.67;;
11496;SDS011;5805;51.542;7.230;2024-02-26T09:01:25;1.50;;;1.40;;
11496;SDS011;5805;51.542;7.230;2024-02-26T09:03:51;3.90;;;1.58;;
11496;SDS011;5805;51.542;7.230;2024-02-26T09:06:16;2.05;;;1.50;;
11496;SDS011;5805;51.542;7.230;2024-02-26T09:08:42;5.60;;;2.30;;
11496;SDS011;5805;51.542;7.230;2024-02-26T09:11:09;3.95;;;2.08;;
11496;SDS011;5805;51.542;7.230;2024-02-26T09:13:35;3.42;;;1.80;;
11496;SDS011;5805;51.542;7.230;2024-02-26T09:16:01;3.97;;;1.55;;
11496;SDS011;5805;51.542;7.230;2024-02-26T09:18:26;3.72;;;2.05;;
11496;SDS011;5805;51.542;7.230;2024-02-26T09:20:52;2.00;;;1.77;;
11496;SDS011;5805;51.542;7.230;2024-02-26T09:23:18;4.15;;;2.40;;
11496;SDS011;5805;51.542;7.230;2024-02-26T09:25:43;2.30;;;1.98;;
11496;SDS011;5805;51.542;7.230;2024-02-26T09:28:10;2.50;;;2.00;;
11496;SDS011;5805;51.542;7.230;2024-02-26T09:30:36;4.70;;;1.70;;
11496;SDS011;5805;51.542;7.230;2024-02-26T09:33:02;1.83;;;1.60;;
11496;SDS011;5805;51.542;7.230;2024-02-26T09:35:28;2.20;;;1.90;;
11496;SDS011;5805;51.542;7.230;2024-02-26T09:37:53;2.55;;;1.92;;
11496;SDS011;5805;51.542;7.230;2024-02-26T09:40:19;3.97;;;1.95;;
11496;SDS011;5805;51.542;7.230;2024-02-26T09:42:45;3.92;;;2.28;;
11496;SDS011;5805;51.542;7.230;2024-02-26T09:45:18;1.85;;;1.48;;
11496;SDS011;5805;51.542;7.230;2024-02-26T09:47:46;4.32;;;2.00;;
11496;SDS011;5805;51.542;7.230;2024-02-26T09:50:13;3.40;;;2.20;;
11496;SDS011;5805;51.542;7.230;2024-02-26T09:52:41;2.22;;;1.88;;
11496;SDS011;5805;51.542;7.230;2024-02-26T09:55:09;2.30;;;1.90;;
11496;SDS011;5805;51.542;7.230;2024-02-26T09:57:36;1.75;;;1.45;;
11496;SDS011;5805;51.542;7.230;2024-02-26T10:00:02;4.47;;;1.73;;
11496;SDS011;5805;51.542;7.230;2024-02-26T10:02:30;3.28;;;1.85;;
11496;SDS011;5805;51.542;7.230;2024-02-26T10:04:57;2.58;;;1.92;;
11496;SDS011;5805;51.542;7.230;2024-02-26T10:07:27;2.78;;;1.98;;
11496;SDS011;5805;51.542;7.230;2024-02-26T10:09:54;3.50;;;2.53;;
11496;SDS011;5805;51.542;7.230;2024-02-26T10:12:19;3.70;;;1.58;;
11496;SDS011;5805;51.542;7.230;2024-02-26T10:14:46;2.47;;;2.13;;
11496;SDS011;5805;51.542;7.230;2024-02-26T10:17:12;2.63;;;1.67;;
11496;SDS011;5805;51.542;7.230;2024-02-26T10:19:39;2.28;;;1.73;;
11496;SDS011;5805;51.542;7.230;2024-02-26T10:22:05;4.45;;;1.85;;
11496;SDS011;5805;51.542;7.230;2024-02-26T10:24:31;2.47;;;1.50;;
11496;SDS011;5805;51.542;7.230;2024-02-26T10:26:57;3.10;;;1.73;;
11496;SDS011;5805;51.542;7.230;2024-02-26T10:29:23;1.77;;;1.67;;
11496;SDS011;5805;51.542;7.230;2024-02-26T10:31:50;1.38;;;1.27;;
11496;SDS011;5805;51.542;7.230;2024-02-26T10:34:16;2.17;;;1.75;;
11496;SDS011;5805;51.542;7.230;2024-02-26T10:36:43;2.35;;;1.60;;
11496;SDS011;5805;51.542;7.230;2024-02-26T10:39:09;1.70;;;1.48;;
11496;SDS011;5805;51.542;7.230;2024-02-26T10:41:37;4.10;;;1.88;;
11496;SDS011;5805;51.542;7.230;2024-02-26T10:44:04;2.67;;;2.05;;
11496;SDS011;5805;51.542;7.230;2024-02-26T10:46:30;2.00;;;1.60;;
11496;SDS011;5805;51.542;7.230;2024-02-26T10:48:56;2.38;;;1.80;;
11496;SDS011;5805;51.542;7.230;2024-02-26T10:51:24;2.55;;;1.58;;
11496;SDS011;5805;51.542;7.230;2024-02-26T10:53:54;2.28;;;1.70;;
11496;SDS011;5805;51.542;7.230;2024-02-26T10:56:21;2.63;;;1.80;;
11496;SDS011;5805;51.542;7.230;2024-02-26T10:58:49;2.85;;;2.13;;
11496;SDS011;5805;51.542;7.230;2024-02-26T11:01:15;2.85;;;1.90;;
11496;SDS011;5805;51.542;7.230;2024-02-26T11:03:41;2.55;;;2.08;;
11496;SDS011;5805;51.542;7.230;2024-02-26T11:06:07;2.22;;;2.00;;
11496;SDS011;5805;51.542;7.230;2024-02-26T11:08:33;2.13;;;1.80;;
11496;SDS011;5805;51.542;7.230;2024-02-26T11:11:01;1.70;;;1.60;;
11496;SDS011;5805;51.542;7.230;2024-02-26T11:13:28;2.60;;;2.00;;
11496;SDS011;5805;51.542;7.230;2024-02-26T11:15:56;2.95;;;2.10;;
11496;SDS011;5805;51.542;7.230;2024-02-26T11:18:22;2.50;;;2.15;;
11496;SDS011;5805;51.542;7.230;2024-02-26T11:20:50;2.65;;;2.20;;
11496;SDS011;5805;51.542;7.230;2024-02-26T11:23:17;3.50;;;2.22;;
11496;SDS011;5805;51.542;7.230;2024-02-26T11:25:42;3.00;;;2.20;;
11496;SDS011;5805;51.542;7.230;2024-02-26T11:28:10;2.90;;;2.42;;
11496;SDS011;5805;51.542;7.230;2024-02-26T11:30:39;3.42;;;2.40;;
11496;SDS011;5805;51.542;7.230;2024-02-26T11:33:08;3.42;;;2.40;;
11496;SDS011;5805;51.542;7.230;2024-02-26T11:35:35;3.20;;;2.42;;
11496;SDS011;5805;51.542;7.230;2024-02-26T11:38:01;3.85;;;2.80;;
11496;SDS011;5805;51.542;7.230;2024-02-26T11:40:27;3.60;;;2.75;;
11496;SDS011;5805;51.542;7.230;2024-02-26T11:42:53;4.63;;;3.13;;
11496;SDS011;5805;51.542;7.230;2024-02-26T11:48:15;3.95;;;2.72;;
11496;SDS011;5805;51.542;7.230;2024-02-26T11:50:46;4.13;;;3.22;;
11496;SDS011;5805;51.542;7.230;2024-02-26T11:53:25;5.82;;;3.47;;
11496;SDS011;5805;51.542;7.230;2024-02-26T11:56:12;4.15;;;3.30;;
11496;SDS011;5805;51.542;7.230;2024-02-26T11:58:47;4.35;;;3.10;;
11496;SDS011;5805;51.542;7.230;2024-02-26T12:04:02;5.88;;;3.33;;
11496;SDS011;5805;51.542;7.230;2024-02-26T12:06:29;6.00;;;3.72;;
11496;SDS011;5805;51.542;7.230;2024-02-26T12:08:55;5.13;;;3.53;;
11496;SDS011;5805;51.542;7.230;2024-02-26T12:11:21;4.40;;;3.78;;
11496;SDS011;5805;51.542;7.230;2024-02-26T12:13:47;7.00;;;4.10;;
11496;SDS011;5805;51.542;7.230;2024-02-26T12:16:13;4.95;;;3.85;;
11496;SDS011;5805;51.542;7.230;2024-02-26T12:19:04;3.97;;;3.13;;
11496;SDS011;5805;51.542;7.230;2024-02-26T12:21:30;4.93;;;3.45;;
11496;SDS011;5805;51.542;7.230;2024-02-26T12:24:06;4.00;;;2.95;;
11496;SDS011;5805;51.542;7.230;2024-02-26T12:26:34;8.07;;;3.85;;
11496;SDS011;5805;51.542;7.230;2024-02-26T12:29:03;3.83;;;3.25;;
11496;SDS011;5805;51.542;7.230;2024-02-26T12:31:29;3.67;;;2.78;;
11496;SDS011;5805;51.542;7.230;2024-02-26T12:33:56;5.20;;;2.78;;
11496;SDS011;5805;51.542;7.230;2024-02-26T12:36:22;4.03;;;3.17;;
11496;SDS011;5805;51.542;7.230;2024-02-26T12:38:47;4.47;;;2.78;;
11496;SDS011;5805;51.542;7.230;2024-02-26T12:41:13;4.35;;;3.03;;
11496;SDS011;5805;51.542;7.230;2024-02-26T12:43:40;3.47;;;2.67;;
11496;SDS011;5805;51.542;7.230;2024-02-26T12:46:06;3.95;;;3.17;;
11496;SDS011;5805;51.542;7.230;2024-02-26T12:48:32;3.13;;;2.83;;
11496;SDS011;5805;51.542;7.230;2024-02-26T12:50:59;3.30;;;2.97;;
11496;SDS011;5805;51.542;7.230;2024-02-26T12:53:25;3.80;;;2.95;;
11496;SDS011;5805;51.542;7.230;2024-02-26T12:55:52;3.55;;;2.78;;
11496;SDS011;5805;51.542;7.230;2024-02-26T12:58:18;4.55;;;2.70;;
11496;SDS011;5805;51.542;7.230;2024-02-26T13:00:45;3.42;;;2.75;;
11496;SDS011;5805;51.542;7.230;2024-02-26T13:03:11;3.30;;;2.88;;
11496;SDS011;5805;51.542;7.230;2024-02-26T13:05:38;3.53;;;2.72;;
11496;SDS011;5805;51.542;7.230;2024-02-26T13:08:06;3.90;;;2.78;;
11496;SDS011;5805;51.542;7.230;2024-02-26T13:10:32;2.15;;;1.95;;
11496;SDS011;5805;51.542;7.230;2024-02-26T13:13:01;6.43;;;2.72;;
11496;SDS011;5805;51.542;7.230;2024-02-26T13:15:27;3.15;;;2.50;;
11496;SDS011;5805;51.542;7.230;2024-02-26T13:17:53;4.30;;;2.80;;
11496;SDS011;5805;51.542;7.230;2024-02-26T13:20:25;3.22;;;2.30;;
11496;SDS011;5805;51.542;7.230;2024-02-26T13:22:59;4.20;;;2.55;;
11496;SDS011;5805;51.542;7.230;2024-02-26T13:25:26;2.60;;;2.40;;
11496;SDS011;5805;51.542;7.230;2024-02-26T13:28:04;3.05;;;2.40;;
11496;SDS011;5805;51.542;7.230;2024-02-26T13:30:31;2.75;;;2.10;;
11496;SDS011;5805;51.542;7.230;2024-02-26T13:32:57;2.95;;;2.40;;
11496;SDS011;5805;51.542;7.230;2024-02-26T13:35:32;4.55;;;2.60;;
11496;SDS011;5805;51.542;7.230;2024-02-26T13:37:58;2.38;;;2.17;;
11496;SDS011;5805;51.542;7.230;2024-02-26T13:40:24;3.30;;;2.50;;
11496;SDS011;5805;51.542;7.230;2024-02-26T13:42:51;2.60;;;2.17;;
11496;SDS011;5805;51.542;7.230;2024-02-26T13:45:16;3.53;;;1.73;;
11496;SDS011;5805;51.542;7.230;2024-02-26T13:47:42;2.70;;;2.05;;
11496;SDS011;5805;51.542;7.230;2024-02-26T13:50:08;3.17;;;2.10;;
11496;SDS011;5805;51.542;7.230;2024-02-26T13:52:34;2.42;;;2.00;;
11496;SDS011;5805;51.542;7.230;2024-02-26T13:54:59;2.97;;;2.58;;
11496;SDS011;5805;51.542;7.230;2024-02-26T13:57:25;3.28;;;2.25;;
11496;SDS011;5805;51.542;7.230;2024-02-26T13:59:52;5.85;;;1.98;;
11496;SDS011;5805;51.542;7.230;2024-02-26T14:02:18;2.35;;;2.10;;
11496;SDS011;5805;51.542;7.230;2024-02-26T14:04:44;3.30;;;2.17;;
11496;SDS011;5805;51.542;7.230;2024-02-26T14:07:10;2.95;;;1.80;;
11496;SDS011;5805;51.542;7.230;2024-02-26T14:09:36;3.35;;;2.17;;
11496;SDS011;5805;51.542;7.230;2024-02-26T14:12:02;2.50;;;1.98;;
11496;SDS011;5805;51.542;7.230;2024-02-26T14:14:29;3.78;;;2.00;;
11496;SDS011;5805;51.542;7.230;2024-02-26T14:16:56;3.58;;;2.17;;
11496;SDS011;5805;51.542;7.230;2024-02-26T14:19:22;1.85;;;1.73;;
11496;SDS011;5805;51.542;7.230;2024-02-26T14:21:48;3.33;;;2.38;;
11496;SDS011;5805;51.542;7.230;2024-02-26T14:24:13;3.63;;;2.20;;
11496;SDS011;5805;51.542;7.230;2024-02-26T14:26:39;4.25;;;2.30;;
11496;SDS011;5805;51.542;7.230;2024-02-26T14:29:05;2.03;;;1.83;;
11496;SDS011;5805;51.542;7.230;2024-02-26T14:31:31;6.25;;;2.97;;
11496;SDS011;5805;51.542;7.230;2024-02-26T14:33:58;3.53;;;2.45;;
11496;SDS011;5805;51.542;7.230;2024-02-26T14:36:24;2.28;;;2.08;;
11496;SDS011;5805;51.542;7.230;2024-02-26T14:38:50;3.22;;;2.25;;
11496;SDS011;5805;51.542;7.230;2024-02-26T14:41:16;2.00;;;1.88;;
11496;SDS011;5805;51.542;7.230;2024-02-26T14:43:42;3.53;;;2.10;;
11496;SDS011;5805;51.542;7.230;2024-02-26T14:46:07;3.10;;;2.05;;
11496;SDS011;5805;51.542;7.230;2024-02-26T14:48:33;4.43;;;2.17;;
11496;SDS011;5805;51.542;7.230;2024-02-26T14:51:00;5.97;;;1.98;;
11496;SDS011;5805;51.542;7.230;2024-02-26T14:53:26;3.00;;;2.13;;
11496;SDS011;5805;51.542;7.230;2024-02-26T14:55:51;2.42;;;1.63;;
11496;SDS011;5805;51.542;7.230;2024-02-26T14:58:18;2.95;;;1.73;;
11496;SDS011;5805;51.542;7.230;2024-02-26T15:00:44;1.60;;;1.45;;